createdAt,value
2015-09-29T00:00:57.889Z,8.4
2015-09-29T00:01:57.845Z,8.4
2015-09-29T00:02:57.784Z,8.4
2015-09-29T00:03:57.740Z,8.4
2015-09-29T00:04:57.680Z,8.5
2015-09-29T00:05:57.621Z,8.5
2015-09-29T00:06:57.577Z,8.4
2015-09-29T00:07:57.515Z,8.4
2015-09-29T00:08:57.470Z,8.4
2015-09-29T00:09:57.411Z,8.4
2015-09-29T00:10:57.350Z,8.4
2015-09-29T00:11:57.307Z,8.4
2015-09-29T00:12:57.247Z,8.4
2015-09-29T00:13:57.203Z,8.3
2015-09-29T00:14:57.142Z,8.4
2015-09-29T00:15:57.083Z,8.4
2015-09-29T00:16:57.039Z,8.3
2015-09-29T00:17:56.978Z,8.3
2015-09-29T00:18:56.919Z,8.4
2015-09-29T00:19:56.875Z,8.3
2015-09-29T00:20:56.815Z,8.3
2015-09-29T00:21:56.771Z,8.3
2015-09-29T00:22:56.711Z,8.3
2015-09-29T00:23:56.652Z,8.3
2015-09-29T00:24:56.608Z,8.3
2015-09-29T00:25:56.548Z,8.3
2015-09-29T00:26:56.503Z,8.3
2015-09-29T00:27:56.444Z,8.3
2015-09-29T00:28:56.384Z,8.3
2015-09-29T00:29:56.340Z,8.3
2015-09-29T00:30:56.280Z,8.3
2015-09-29T00:31:56.221Z,8.3
2015-09-29T00:32:56.177Z,8.3
2015-09-29T00:33:56.117Z,8.3
2015-09-29T00:34:56.073Z,8.3
2015-09-29T00:35:56.013Z,8.4
2015-09-29T00:36:55.968Z,8.3
2015-09-29T00:37:55.909Z,8.4
2015-09-29T00:38:55.865Z,8.4
2015-09-29T00:39:55.805Z,8.4
2015-09-29T00:40:55.746Z,8.4
2015-09-29T00:41:55.702Z,8.4
2015-09-29T00:42:55.641Z,8.2
2015-09-29T00:43:55.582Z,8.3
2015-09-29T00:44:55.537Z,8.3
2015-09-29T00:45:55.494Z,8.3
2015-09-29T00:46:55.433Z,8.3
2015-09-29T00:47:55.390Z,8.3
2015-09-29T00:48:55.329Z,8.2
2015-09-29T00:49:55.271Z,8.3
2015-09-29T00:50:55.210Z,8.2
2015-09-29T00:51:55.166Z,8.2
2015-09-29T00:52:55.107Z,8.2
2015-09-29T00:53:55.062Z,8.2
2015-09-29T00:54:55.002Z,8.3
2015-09-29T00:55:54.943Z,8.3
2015-09-29T00:56:54.898Z,8.3
2015-09-29T00:57:54.835Z,8.3
2015-09-29T00:58:54.792Z,8.3
2015-09-29T00:59:54.731Z,8.3
2015-09-29T01:00:54.687Z,8.3
2015-09-29T01:01:54.628Z,8.4
2015-09-29T01:02:54.568Z,8.3
2015-09-29T01:03:54.524Z,8.2
2015-09-29T01:04:54.465Z,8.2
2015-09-29T01:05:54.404Z,8.3
2015-09-29T01:06:54.360Z,8.3
2015-09-29T01:07:54.300Z,8.3
2015-09-29T01:08:54.240Z,8.2
2015-09-29T01:09:54.197Z,8.2
2015-09-29T01:10:54.137Z,8.2
2015-09-29T01:11:54.093Z,8.2
2015-09-29T01:12:54.034Z,8.2
2015-09-29T01:13:53.973Z,8.2
2015-09-29T01:14:53.914Z,8.2
2015-09-29T01:15:53.869Z,8.2
2015-09-29T01:16:53.825Z,8.3
2015-09-29T01:17:53.765Z,8.3
2015-09-29T01:18:53.706Z,8.3
2015-09-29T01:19:53.662Z,8.3
2015-09-29T01:20:53.602Z,8.3
2015-09-29T01:21:53.542Z,8.3
2015-09-29T01:22:53.498Z,8.3
2015-09-29T01:23:53.439Z,8.3
2015-09-29T01:24:53.378Z,8.3
2015-09-29T01:25:53.334Z,8.4
2015-09-29T01:26:53.275Z,8.3
2015-09-29T01:27:53.230Z,8.3
2015-09-29T01:28:53.171Z,8.4
2015-09-29T01:29:53.127Z,8.4
2015-09-29T01:30:53.067Z,8.4
2015-09-29T01:31:53.008Z,8.4
2015-09-29T01:32:52.963Z,8.4
2015-09-29T01:33:52.903Z,8.4
2015-09-29T01:34:52.859Z,8.4
2015-09-29T01:35:52.800Z,8.4
2015-09-29T01:36:52.756Z,8.4
2015-09-29T01:37:52.696Z,8.4
2015-09-29T01:38:52.636Z,8.5
2015-09-29T01:39:52.592Z,8.5
2015-09-29T01:40:52.533Z,8.5
2015-09-29T01:41:52.488Z,8.5
2015-09-29T01:42:52.428Z,8.5
2015-09-29T01:43:52.369Z,8.6
2015-09-29T01:44:52.324Z,8.6
2015-09-29T01:45:52.261Z,8.6
2015-09-29T01:46:52.217Z,8.6
2015-09-29T01:47:52.189Z,8.6
2015-09-29T01:48:52.114Z,8.6
2015-09-29T01:49:52.054Z,8.6
2015-09-29T01:50:52.010Z,8.5
2015-09-29T01:51:51.950Z,8.6
2015-09-29T01:52:51.890Z,8.6
2015-09-29T01:53:51.846Z,8.6
2015-09-29T01:54:51.786Z,8.5
2015-09-29T01:55:51.742Z,8.5
2015-09-29T01:56:51.682Z,8.6
2015-09-29T01:57:51.622Z,8.5
2015-09-29T01:58:51.579Z,8.5
2015-09-29T01:59:51.519Z,8.4
2015-09-29T02:00:51.475Z,8.5
2015-09-29T02:01:51.415Z,8.5
2015-09-29T02:02:51.371Z,8.5
2015-09-29T02:03:51.311Z,8.4
2015-09-29T02:04:51.251Z,8.4
2015-09-29T02:05:51.207Z,8.4
2015-09-29T02:06:51.163Z,8.4
2015-09-29T02:07:51.088Z,8.4
2015-09-29T02:08:51.043Z,8.3
2015-09-29T02:09:50.984Z,8.3
2015-09-29T02:10:50.940Z,8.3
2015-09-29T02:11:50.879Z,8.3
2015-09-29T02:12:50.836Z,8.2
2015-09-29T02:13:50.776Z,8.2
2015-09-29T02:14:50.716Z,8.2
2015-09-29T02:15:50.672Z,8.3
2015-09-29T02:16:50.612Z,8.3
2015-09-29T02:17:50.568Z,8.4
2015-09-29T02:18:50.509Z,8.4
2015-09-29T02:19:50.448Z,8.4
2015-09-29T02:20:50.404Z,8.4
2015-09-29T02:21:50.345Z,8.3
2015-09-29T02:22:50.285Z,8.3
2015-09-29T02:23:50.240Z,8.4
2015-09-29T02:24:50.181Z,8.4
2015-09-29T02:25:50.138Z,8.3
2015-09-29T02:26:50.077Z,8.3
2015-09-29T02:27:50.033Z,8.3
2015-09-29T02:28:49.974Z,8.2
2015-09-29T02:29:49.914Z,8.1
2015-09-29T02:30:49.870Z,8.1
2015-09-29T02:31:49.810Z,8.1
2015-09-29T02:32:49.750Z,8.1
2015-09-29T02:33:49.706Z,8
2015-09-29T02:34:49.643Z,8
2015-09-29T02:35:49.583Z,8.1
2015-09-29T02:36:49.539Z,8.1
2015-09-29T02:37:49.479Z,8.1
2015-09-29T02:38:49.436Z,8.1
2015-09-29T02:39:49.376Z,8.1
2015-09-29T02:40:49.317Z,8.1
2015-09-29T02:41:49.272Z,8.1
2015-09-29T02:42:49.227Z,8.1
2015-09-29T02:43:49.168Z,8
2015-09-29T02:44:49.108Z,8
2015-09-29T02:45:49.064Z,8
2015-09-29T02:46:49.003Z,8
2015-09-29T02:47:48.945Z,8
2015-09-29T02:48:48.900Z,8
2015-09-29T02:49:48.840Z,7.9
2015-09-29T02:50:48.780Z,8
2015-09-29T02:51:48.737Z,8
2015-09-29T02:52:48.677Z,7.9
2015-09-29T02:53:48.616Z,7.9
2015-09-29T02:54:48.572Z,7.9
2015-09-29T02:55:48.513Z,7.9
2015-09-29T02:56:48.469Z,8
2015-09-29T02:57:48.409Z,7.9
2015-09-29T02:58:48.350Z,7.9
2015-09-29T02:59:48.305Z,7.9
2015-09-29T03:00:48.246Z,7.8
2015-09-29T03:01:48.186Z,7.8
2015-09-29T03:02:48.142Z,7.8
2015-09-29T03:03:48.083Z,7.9
2015-09-29T03:04:48.022Z,7.9
2015-09-29T03:05:47.978Z,7.8
2015-09-29T03:06:47.919Z,7.8
2015-09-29T03:07:47.874Z,7.8
2015-09-29T03:08:47.814Z,7.7
2015-09-29T03:09:47.754Z,7.7
2015-09-29T03:10:47.710Z,7.7
2015-09-29T03:11:47.652Z,7.7
2015-09-29T03:12:47.607Z,7.7
2015-09-29T03:13:47.547Z,7.7
2015-09-29T03:14:47.488Z,7.7
2015-09-29T03:15:47.459Z,7.7
2015-09-29T03:16:47.383Z,7.7
2015-09-29T03:17:47.324Z,7.7
2015-09-29T03:18:47.279Z,7.7
2015-09-29T03:19:47.219Z,7.6
2015-09-29T03:20:47.160Z,7.6
2015-09-29T03:21:47.116Z,7.7
2015-09-29T03:22:47.057Z,7.7
2015-09-29T03:23:47.012Z,7.7
2015-09-29T03:24:46.952Z,7.6
2015-09-29T03:25:46.905Z,7.6
2015-09-29T03:26:46.845Z,7.7
2015-09-29T03:27:46.785Z,7.7
2015-09-29T03:28:46.741Z,7.7
2015-09-29T03:29:46.681Z,7.7
2015-09-29T03:30:46.621Z,7.7
2015-09-29T03:31:46.593Z,7.7
2015-09-29T03:32:46.534Z,7.7
2015-09-29T03:33:46.474Z,7.6
2015-09-29T03:34:46.415Z,7.5
2015-09-29T03:36:46.592Z,7.4
2015-09-29T03:37:46.485Z,7.4
2015-09-29T03:40:46.352Z,7.4
2015-09-29T03:41:46.043Z,7.4
2015-09-29T03:42:45.999Z,7.3
2015-09-29T03:43:46.142Z,7.4
2015-09-29T03:45:45.851Z,7.4
2015-09-29T03:46:47.322Z,7.4
2015-09-29T03:48:45.687Z,7.3
2015-09-29T03:49:46.220Z,7.3
2015-09-29T03:50:45.568Z,7.3
2015-09-29T03:51:45.554Z,7.4
2015-09-29T03:52:45.464Z,7.4
2015-09-29T03:53:45.420Z,7.3
2015-09-29T03:54:45.579Z,7.3
2015-09-29T03:55:45.315Z,7.2
2015-09-29T03:56:45.475Z,7.3
2015-09-29T03:57:45.195Z,7.4
2015-09-29T03:58:45.136Z,7.4
2015-09-29T03:59:45.701Z,7.3
2015-09-29T04:00:45.033Z,7.4
2015-09-29T04:01:44.972Z,7.3
2015-09-29T04:02:44.928Z,7.3
2015-09-29T04:03:44.869Z,7.4
2015-09-29T04:04:44.809Z,7.3
2015-09-29T04:05:44.765Z,7.3
2015-09-29T04:06:44.706Z,7.2
2015-09-29T04:07:44.645Z,7.2
2015-09-29T04:08:44.601Z,7.2
2015-09-29T04:09:44.541Z,7.1
2015-09-29T04:10:44.497Z,7.2
2015-09-29T04:11:44.438Z,7.2
2015-09-29T04:12:44.377Z,7.1
2015-09-29T04:13:44.318Z,7.1
2015-09-29T04:14:44.274Z,7.1
2015-09-29T04:15:44.211Z,7.1
2015-09-29T04:16:44.167Z,7.1
2015-09-29T04:17:44.107Z,7.1
2015-09-29T04:18:44.047Z,7
2015-09-29T04:19:44.003Z,7
2015-09-29T04:20:43.944Z,7.1
2015-09-29T04:21:43.900Z,7.2
2015-09-29T04:22:43.841Z,7.2
2015-09-29T04:23:43.796Z,7.1
2015-09-29T04:24:43.736Z,7
2015-09-29T04:25:43.677Z,6.9
2015-09-29T04:26:43.616Z,6.9
2015-09-29T04:27:43.572Z,6.9
2015-09-29T04:28:43.513Z,6.8
2015-09-29T04:29:43.453Z,6.8
2015-09-29T04:30:43.408Z,6.7
2015-09-29T04:31:43.350Z,6.8
2015-09-29T04:32:43.289Z,6.9
2015-09-29T04:33:43.245Z,6.9
2015-09-29T04:34:43.186Z,6.8
2015-09-29T04:35:43.126Z,6.8
2015-09-29T04:36:43.082Z,6.8
2015-09-29T04:37:43.021Z,6.7
2015-09-29T04:38:42.962Z,6.8
2015-09-29T04:39:42.902Z,6.7
2015-09-29T04:40:42.858Z,6.7
2015-09-29T04:41:42.798Z,6.7
2015-09-29T04:42:42.754Z,6.8
2015-09-29T04:43:42.694Z,6.7
2015-09-29T04:44:42.634Z,6.7
2015-09-29T04:45:42.591Z,6.6
2015-09-29T04:46:42.531Z,6.6
2015-09-29T04:47:42.471Z,6.6
2015-09-29T04:48:42.426Z,6.6
2015-09-29T04:49:42.367Z,6.6
2015-09-29T04:50:42.307Z,6.7
2015-09-29T04:51:42.248Z,6.7
2015-09-29T04:52:42.204Z,6.7
2015-09-29T04:53:42.143Z,6.7
2015-09-29T04:54:42.084Z,6.8
2015-09-29T04:55:42.040Z,6.8
2015-09-29T04:56:41.979Z,6.8
2015-09-29T04:57:41.921Z,6.6
2015-09-29T04:58:41.876Z,6.7
2015-09-29T04:59:41.817Z,6.7
2015-09-29T05:00:41.756Z,6.7
2015-09-29T05:01:41.713Z,6.6
2015-09-29T05:02:41.653Z,6.7
2015-09-29T05:03:41.593Z,6.8
2015-09-29T05:04:41.548Z,6.8
2015-09-29T05:05:41.489Z,6.7
2015-09-29T05:06:41.429Z,6.6
2015-09-29T05:07:41.369Z,6.7
2015-09-29T05:08:41.403Z,6.7
2015-09-29T05:09:41.262Z,6.6
2015-09-29T05:10:41.203Z,6.5
2015-09-29T05:11:41.159Z,6.4
2015-09-29T05:12:41.099Z,6.4
2015-09-29T05:13:41.039Z,6.5
2015-09-29T05:14:41.011Z,6.5
2015-09-29T05:15:40.936Z,6.6
2015-09-29T05:16:40.891Z,6.6
2015-09-29T05:17:40.831Z,6.6
2015-09-29T05:18:40.772Z,6.6
2015-09-29T05:19:40.712Z,6.6
2015-09-29T05:20:40.668Z,6.7
2015-09-29T05:21:40.608Z,6.6
2015-09-29T05:22:40.547Z,6.6
2015-09-29T05:23:40.504Z,6.7
2015-09-29T05:24:40.444Z,6.5
2015-09-29T05:25:40.385Z,6.5
2015-09-29T05:26:40.341Z,6.4
2015-09-29T05:27:40.281Z,6.5
2015-09-29T05:28:40.221Z,6.6
2015-09-29T05:29:40.177Z,6.5
2015-09-29T05:30:40.117Z,6.5
2015-09-29T05:31:40.058Z,6.5
2015-09-29T05:32:40.013Z,6.5
2015-09-29T05:33:39.969Z,6.5
2015-09-29T05:34:39.894Z,6.5
2015-09-29T05:35:39.850Z,6.4
2015-09-29T05:36:39.790Z,6.3
2015-09-29T05:37:39.730Z,6.3
2015-09-29T05:38:39.686Z,6.4
2015-09-29T05:39:39.618Z,6.5
2015-09-29T05:40:39.546Z,6.4
2015-09-29T05:41:39.490Z,6.5
2015-09-29T05:42:39.418Z,6.4
2015-09-29T05:43:39.346Z,6.4
2015-09-29T05:44:39.295Z,6.3
2015-09-29T05:45:39.231Z,6.3
2015-09-29T05:46:39.199Z,6.2
2015-09-29T05:47:39.119Z,6.2
2015-09-29T05:48:39.055Z,6.2
2015-09-29T05:49:39.009Z,6.3
2015-09-29T05:50:38.948Z,6.3
2015-09-29T05:51:38.886Z,6.4
2015-09-29T05:52:38.840Z,6.3
2015-09-29T05:53:38.780Z,6.3
2015-09-29T05:54:38.718Z,6.3
2015-09-29T05:55:38.674Z,6.3
2015-09-29T05:56:38.615Z,6.3
2015-09-29T05:57:38.553Z,6.4
2015-09-29T05:58:38.510Z,6.5
2015-09-29T05:59:38.449Z,6.5
2015-09-29T06:00:38.389Z,6.5
2015-09-29T06:01:38.345Z,6.5
2015-09-29T06:02:38.284Z,6.6
2015-09-29T06:03:38.225Z,6.7
2015-09-29T06:04:38.165Z,6.7
2015-09-29T06:05:38.120Z,6.8
2015-09-29T06:06:38.058Z,6.8
2015-09-29T06:07:37.998Z,6.8
2015-09-29T06:08:37.938Z,6.9
2015-09-29T06:09:37.894Z,6.9
2015-09-29T06:10:37.834Z,7
2015-09-29T06:11:37.790Z,7.1
2015-09-29T06:12:37.731Z,7.2
2015-09-29T06:13:37.687Z,7.2
2015-09-29T06:14:37.627Z,7.3
2015-09-29T06:15:37.566Z,7.3
2015-09-29T06:16:37.522Z,7.4
2015-09-29T06:17:37.463Z,7.4
2015-09-29T06:18:37.403Z,7.4
2015-09-29T06:19:37.343Z,7.5
2015-09-29T06:20:37.299Z,7.6
2015-09-29T06:21:37.239Z,7.6
2015-09-29T06:22:37.196Z,7.7
2015-09-29T06:23:37.135Z,7.8
2015-09-29T06:24:37.091Z,7.9
2015-09-29T06:25:37.032Z,7.9
2015-09-29T06:26:36.972Z,8
2015-09-29T06:27:36.927Z,8
2015-09-29T06:28:36.869Z,8.1
2015-09-29T06:29:36.824Z,8.1
2015-09-29T06:30:36.764Z,8.2
2015-09-29T06:31:36.704Z,8.2
2015-09-29T06:32:36.660Z,8.2
2015-09-29T06:33:36.601Z,8.3
2015-09-29T06:34:36.557Z,8.3
2015-09-29T06:35:36.497Z,8.4
2015-09-29T06:36:36.437Z,8.5
2015-09-29T06:37:36.393Z,8.5
2015-09-29T06:38:36.333Z,8.5
2015-09-29T06:39:36.289Z,8.6
2015-09-29T06:40:36.229Z,8.7
2015-09-29T06:41:36.169Z,8.7
2015-09-29T06:42:36.126Z,8.8
2015-09-29T06:43:36.066Z,8.8
2015-09-29T06:44:36.021Z,8.9
2015-09-29T06:45:35.962Z,8.9
2015-09-29T06:46:35.917Z,8.9
2015-09-29T06:47:35.858Z,9
2015-09-29T06:48:35.813Z,9
2015-09-29T06:49:35.754Z,9.1
2015-09-29T06:50:35.694Z,9.1
2015-09-29T06:51:35.651Z,9.1
2015-09-29T06:52:35.606Z,9.2
2015-09-29T06:53:35.546Z,9.1
2015-09-29T06:54:35.487Z,9.2
2015-09-29T06:55:35.458Z,9.2
2015-09-29T06:56:35.380Z,9.3
2015-09-29T06:57:35.320Z,9.3
2015-09-29T06:58:35.276Z,9.3
2015-09-29T06:59:35.216Z,9.3
2015-09-29T07:00:35.173Z,9.4
2015-09-29T07:01:35.128Z,9.4
2015-09-29T07:02:35.068Z,9.4
2015-09-29T07:03:35.008Z,9.5
2015-09-29T07:04:34.964Z,9.5
2015-09-29T07:05:34.904Z,9.6
2015-09-29T07:06:34.859Z,9.6
2015-09-29T07:07:34.800Z,9.7
2015-09-29T07:08:34.740Z,9.7
2015-09-29T07:09:34.697Z,9.8
2015-09-29T07:10:34.653Z,9.9
2015-09-29T07:11:34.592Z,9.9
2015-09-29T07:12:34.533Z,10
2015-09-29T07:13:34.488Z,10
2015-09-29T07:14:34.428Z,10
2015-09-29T07:15:34.384Z,10
2015-09-29T07:16:34.325Z,10.1
2015-09-29T07:17:34.265Z,10
2015-09-29T07:18:34.222Z,10
2015-09-29T07:19:34.161Z,10
2015-09-29T07:20:34.117Z,10
2015-09-29T07:21:34.058Z,9.9
2015-09-29T07:22:34.013Z,10
2015-09-29T07:23:33.969Z,10
2015-09-29T07:24:33.909Z,10
2015-09-29T07:25:33.850Z,10
2015-09-29T07:26:33.806Z,9.9
2015-09-29T07:27:33.746Z,9.9
2015-09-29T07:28:33.702Z,9.8
2015-09-29T07:29:33.642Z,9.9
2015-09-29T07:30:33.597Z,10
2015-09-29T07:31:33.539Z,10.1
2015-09-29T07:32:33.494Z,10.2
2015-09-29T07:33:33.434Z,10.1
2015-09-29T07:34:33.390Z,10.1
2015-09-29T07:35:33.330Z,10
2015-09-29T07:36:33.271Z,10
2015-09-29T07:37:33.226Z,10
2015-09-29T07:38:33.182Z,10
2015-09-29T07:39:33.123Z,10
2015-09-29T07:40:33.063Z,10
2015-09-29T07:41:33.018Z,10.1
2015-09-29T07:42:32.959Z,10.1
2015-09-29T07:43:32.915Z,10.2
2015-09-29T07:44:32.855Z,10.1
2015-09-29T07:45:32.810Z,10.1
2015-09-29T07:46:32.751Z,10.1
2015-09-29T07:47:32.704Z,10
2015-09-29T07:48:32.644Z,9.9
2015-09-29T07:49:32.585Z,9.9
2015-09-29T07:50:32.541Z,9.9
2015-09-29T07:51:32.496Z,9.9
2015-09-29T07:52:32.437Z,9.8
2015-09-29T07:53:32.392Z,9.9
2015-09-29T07:54:32.332Z,9.9
2015-09-29T07:55:32.273Z,9.9
2015-09-29T07:56:32.229Z,9.9
2015-09-29T07:57:32.169Z,10
2015-09-29T07:58:32.124Z,10.1
2015-09-29T07:59:32.065Z,10.1
2015-09-29T08:00:32.021Z,10.2
2015-09-29T08:01:31.962Z,10.3
2015-09-29T08:02:31.902Z,10.3
2015-09-29T08:03:31.857Z,10.3
2015-09-29T08:04:31.813Z,10.3
2015-09-29T08:05:31.754Z,10.2
2015-09-29T08:06:31.693Z,10.3
2015-09-29T08:07:31.649Z,10.2
2015-09-29T08:08:31.606Z,10.1
2015-09-29T08:09:31.545Z,10.1
2015-09-29T08:10:31.501Z,10.2
2015-09-29T08:11:31.442Z,10.3
2015-09-29T08:12:31.382Z,10.4
2015-09-29T08:13:31.338Z,10.5
2015-09-29T08:14:31.279Z,10.6
2015-09-29T08:15:31.234Z,10.7
2015-09-29T08:16:31.174Z,10.8
2015-09-29T08:17:31.130Z,10.8
2015-09-29T08:18:31.070Z,10.9
2015-09-29T08:19:31.011Z,11.1
2015-09-29T08:20:30.966Z,11.1
2015-09-29T08:21:30.922Z,11.1
2015-09-29T08:22:30.862Z,11.2
2015-09-29T08:23:30.817Z,11.3
2015-09-29T08:24:30.759Z,11.4
2015-09-29T08:25:30.714Z,11.5
2015-09-29T08:26:30.655Z,11.5
2015-09-29T08:27:30.611Z,11.4
2015-09-29T08:28:30.551Z,11.4
2015-09-29T08:29:30.506Z,11.4
2015-09-29T08:30:30.462Z,11.5
2015-09-29T08:31:30.403Z,11.6
2015-09-29T08:32:30.343Z,11.5
2015-09-29T08:33:30.299Z,11.5
2015-09-29T08:34:30.239Z,11.5
2015-09-29T08:35:30.194Z,11.4
2015-09-29T08:36:30.136Z,11.3
2015-09-29T08:37:30.092Z,11.2
2015-09-29T08:38:30.031Z,11.2
2015-09-29T08:39:29.972Z,11.1
2015-09-29T08:40:29.927Z,10.9
2015-09-29T08:41:29.883Z,10.9
2015-09-29T08:42:29.823Z,10.9
2015-09-29T08:43:29.764Z,11
2015-09-29T08:44:29.719Z,11.1
2015-09-29T08:45:29.657Z,11.1
2015-09-29T08:46:29.613Z,11.2
2015-09-29T08:47:29.552Z,11.4
2015-09-29T08:48:29.508Z,11.3
2015-09-29T08:49:29.449Z,11.3
2015-09-29T08:50:29.405Z,11.3
2015-09-29T08:51:29.345Z,11.3
2015-09-29T08:52:29.301Z,11.4
2015-09-29T08:53:29.241Z,11.4
2015-09-29T08:54:29.197Z,11.6
2015-09-29T08:55:29.138Z,11.6
2015-09-29T08:56:29.078Z,11.6
2015-09-29T08:57:29.033Z,11.4
2015-09-29T08:58:28.974Z,11.4
2015-09-29T08:59:28.929Z,11.4
2015-09-29T09:00:28.870Z,11.3
2015-09-29T09:01:28.826Z,11.4
2015-09-29T09:02:28.765Z,11.4
2015-09-29T09:03:28.706Z,11.4
2015-09-29T09:04:28.662Z,11.5
2015-09-29T09:05:28.617Z,11.5
2015-09-29T09:06:28.557Z,11.5
2015-09-29T09:07:28.514Z,11.5
2015-09-29T09:08:28.454Z,11.6
2015-09-29T09:09:28.410Z,11.7
2015-09-29T09:10:28.350Z,11.7
2015-09-29T09:11:28.306Z,11.7
2015-09-29T09:12:28.245Z,11.6
2015-09-29T09:13:28.201Z,11.6
2015-09-29T09:14:28.142Z,11.6
2015-09-29T09:15:28.098Z,11.8
2015-09-29T09:16:28.039Z,11.8
2015-09-29T09:17:27.994Z,11.9
2015-09-29T09:18:27.934Z,12.1
2015-09-29T09:19:27.906Z,12.1
2015-09-29T09:20:27.831Z,12.2
2015-09-29T09:21:27.803Z,12.3
2015-09-29T09:22:27.742Z,12.4
2015-09-29T09:23:27.683Z,12.3
2015-09-29T09:24:27.639Z,12.4
2015-09-29T09:25:27.595Z,12.3
2015-09-29T09:26:27.534Z,12.2
2015-09-29T09:27:27.475Z,12.1
2015-09-29T09:28:27.431Z,12.2
2015-09-29T09:29:27.371Z,12.2
2015-09-29T09:30:27.327Z,12.2
2015-09-29T09:31:27.283Z,12.3
2015-09-29T09:32:27.223Z,12.4
2015-09-29T09:33:27.164Z,12.4
2015-09-29T09:34:27.119Z,12.5
2015-09-29T09:35:27.056Z,12.5
2015-09-29T09:36:27.012Z,12.6
2015-09-29T09:37:26.969Z,12.6
2015-09-29T09:38:26.909Z,12.4
2015-09-29T09:39:26.864Z,12.4
2015-09-29T09:40:26.805Z,12.5
2015-09-29T09:41:26.761Z,12.6
2015-09-29T09:42:26.700Z,12.6
2015-09-29T09:43:26.656Z,12.6
2015-09-29T09:44:26.597Z,12.6
2015-09-29T09:45:26.552Z,12.6
2015-09-29T09:46:26.509Z,12.7
2015-09-29T09:47:26.449Z,12.7
2015-09-29T09:48:26.405Z,12.8
2015-09-29T09:49:26.344Z,12.9
2015-09-29T09:50:26.300Z,12.9
2015-09-29T09:51:26.241Z,12.9
2015-09-29T09:52:26.197Z,13
2015-09-29T09:53:26.153Z,13
2015-09-29T09:54:26.093Z,13
2015-09-29T09:55:26.049Z,13
2015-09-29T09:56:25.989Z,13
2015-09-29T09:57:25.944Z,13
2015-09-29T09:58:25.885Z,12.8
2015-09-29T09:59:25.841Z,12.8
2015-09-29T10:00:25.782Z,12.8
2015-09-29T10:01:25.738Z,12.8
2015-09-29T10:02:25.677Z,12.7
2015-09-29T10:03:25.633Z,12.8
2015-09-29T10:04:25.574Z,12.9
2015-09-29T10:05:25.529Z,13
2015-09-29T10:06:25.469Z,13.1
2015-09-29T10:07:25.410Z,13.1
2015-09-29T10:08:25.366Z,13.2
2015-09-29T10:09:25.321Z,13.3
2015-09-29T10:10:25.262Z,13.4
2015-09-29T10:11:25.218Z,13.5
2015-09-29T10:12:25.158Z,13.6
2015-09-29T10:13:25.114Z,13.5
2015-09-29T10:14:25.070Z,13.5
2015-09-29T10:15:25.010Z,13.5
2015-09-29T10:16:24.966Z,13.7
2015-09-29T10:17:24.907Z,13.7
2015-09-29T10:18:24.862Z,13.6
2015-09-29T10:19:24.802Z,13.7
2015-09-29T10:20:24.758Z,13.7
2015-09-29T10:21:24.715Z,13.9
2015-09-29T10:22:24.654Z,13.9
2015-09-29T10:23:24.610Z,13.8
2015-09-29T10:24:24.565Z,13.8
2015-09-29T10:25:24.506Z,13.9
2015-09-29T10:26:24.462Z,13.7
2015-09-29T10:27:24.402Z,13.5
2015-09-29T10:28:24.359Z,13.5
2015-09-29T10:29:24.298Z,13.6
2015-09-29T10:30:24.251Z,13.7
2015-09-29T10:31:24.192Z,13.8
2015-09-29T10:32:24.148Z,13.8
2015-09-29T10:33:24.087Z,13.9
2015-09-29T10:34:24.043Z,14
2015-09-29T10:35:24.000Z,13.9
2015-09-29T10:36:23.940Z,14
2015-09-29T10:37:23.895Z,14.2
2015-09-29T10:38:23.836Z,14.3
2015-09-29T10:39:23.791Z,14.2
2015-09-29T10:40:23.731Z,14.2
2015-09-29T10:41:23.687Z,14.1
2015-09-29T10:42:23.644Z,14.2
2015-09-29T10:43:23.583Z,14.3
2015-09-29T10:44:23.525Z,14.2
2015-09-29T10:45:23.481Z,14.4
2015-09-29T10:46:23.420Z,14.5
2015-09-29T10:47:23.376Z,14.6
2015-09-29T10:48:23.332Z,14.6
2015-09-29T10:49:23.272Z,14.6
2015-09-29T10:50:23.228Z,14.5
2015-09-29T10:51:23.168Z,14.4
2015-09-29T10:52:23.108Z,14.4
2015-09-29T10:53:23.064Z,14.4
2015-09-29T10:54:23.019Z,14.5
2015-09-29T10:55:22.960Z,14.5
2015-09-29T10:56:22.917Z,14.5
2015-09-29T10:57:22.856Z,14.4
2015-09-29T10:58:22.813Z,14.4
2015-09-29T10:59:22.752Z,14.4
2015-09-29T11:00:22.708Z,14.4
2015-09-29T11:01:22.664Z,14.5
2015-09-29T11:02:22.604Z,14.6
2015-09-29T11:03:22.561Z,14.6
2015-09-29T11:04:22.501Z,14.6
2015-09-29T11:05:22.457Z,14.5
2015-09-29T11:06:22.397Z,14.5
2015-09-29T11:07:22.353Z,14.5
2015-09-29T11:08:22.293Z,14.6
2015-09-29T11:09:22.249Z,14.6
2015-09-29T11:10:22.189Z,14.7
2015-09-29T11:11:22.145Z,14.7
2015-09-29T11:12:22.085Z,14.7
2015-09-29T11:13:22.041Z,14.7
2015-09-29T11:14:21.981Z,14.7
2015-09-29T11:15:21.938Z,14.7
2015-09-29T11:16:21.877Z,14.6
2015-09-29T11:17:21.833Z,14.6
2015-09-29T11:18:21.789Z,14.5
2015-09-29T11:19:21.729Z,14.6
2015-09-29T11:20:21.685Z,14.7
2015-09-29T11:21:21.625Z,14.7
2015-09-29T11:22:21.578Z,14.7
2015-09-29T11:23:21.518Z,14.7
2015-09-29T11:24:21.474Z,14.8
2015-09-29T11:25:21.430Z,14.7
2015-09-29T11:26:21.418Z,14.7
2015-09-29T11:27:21.326Z,14.8
2015-09-29T11:28:21.267Z,15
2015-09-29T11:29:21.223Z,15.1
2015-09-29T11:30:21.163Z,15
2015-09-29T11:31:21.118Z,15
2015-09-29T11:32:21.074Z,14.9
2015-09-29T11:33:21.015Z,14.9
2015-09-29T11:34:20.971Z,14.9
2015-09-29T11:35:20.912Z,14.9
2015-09-29T11:36:20.867Z,14.9
2015-09-29T11:37:20.823Z,14.8
2015-09-29T11:38:20.763Z,14.7
2015-09-29T11:39:20.719Z,14.7
2015-09-29T11:40:20.659Z,14.6
2015-09-29T11:41:20.615Z,14.6
2015-09-29T11:42:20.570Z,14.7
2015-09-29T11:43:20.512Z,14.6
2015-09-29T11:44:20.467Z,14.5
2015-09-29T11:45:20.423Z,14.6
2015-09-29T11:46:20.363Z,14.6
2015-09-29T11:47:20.303Z,14.6
2015-09-29T11:48:20.275Z,14.5
2015-09-29T11:49:20.214Z,14.5
2015-09-29T11:50:20.155Z,14.5
2015-09-29T11:51:20.112Z,14.5
2015-09-29T11:52:20.067Z,14.5
2015-09-29T11:53:20.006Z,14.5
2015-09-29T11:54:19.963Z,14.5
2015-09-29T11:55:19.903Z,14.6
2015-09-29T11:56:19.859Z,14.5
2015-09-29T11:57:19.800Z,14.6
2015-09-29T11:58:19.755Z,14.5
2015-09-29T11:59:19.711Z,14.6
2015-09-29T12:00:19.651Z,14.6
2015-09-29T12:01:19.608Z,14.6
2015-09-29T12:02:19.547Z,14.6
2015-09-29T12:03:19.503Z,14.6
2015-09-29T12:04:19.475Z,14.7
2015-09-29T12:05:19.399Z,14.7
2015-09-29T12:06:19.355Z,14.9
2015-09-29T12:07:19.295Z,15
2015-09-29T12:08:19.251Z,15
2015-09-29T12:09:19.192Z,15.1
2015-09-29T12:10:19.147Z,15.1
2015-09-29T12:11:19.103Z,15
2015-09-29T12:12:19.044Z,15.1
2015-09-29T12:13:18.999Z,15.2
2015-09-29T12:14:18.952Z,15.3
2015-09-29T12:15:18.893Z,15.2
2015-09-29T12:16:18.849Z,15.3
2015-09-29T12:17:18.805Z,15.3
2015-09-29T12:18:18.744Z,15.3
2015-09-29T12:19:18.700Z,15.4
2015-09-29T12:20:18.640Z,15.4
2015-09-29T12:21:18.596Z,15.5
2015-09-29T12:22:18.552Z,15.6
2015-09-29T12:23:18.493Z,15.6
2015-09-29T12:24:18.449Z,15.7
2015-09-29T12:25:18.388Z,15.6
2015-09-29T12:26:18.345Z,15.6
2015-09-29T12:27:18.301Z,15.5
2015-09-29T12:28:18.257Z,15.4
2015-09-29T12:29:18.197Z,15.3
2015-09-29T12:30:18.152Z,15.5
2015-09-29T12:31:18.093Z,15.6
2015-09-29T12:32:18.048Z,15.7
2015-09-29T12:33:18.004Z,15.7
2015-09-29T12:34:17.945Z,15.6
2015-09-29T12:35:17.901Z,15.7
2015-09-29T12:36:17.857Z,15.7
2015-09-29T12:37:17.796Z,15.8
2015-09-29T12:38:17.737Z,15.9
2015-09-29T12:39:17.692Z,15.9
2015-09-29T12:40:17.649Z,15.7
2015-09-29T12:41:17.589Z,15.7
2015-09-29T12:42:17.545Z,15.7
2015-09-29T12:43:17.485Z,15.7
2015-09-29T12:44:17.440Z,15.7
2015-09-29T12:45:17.396Z,15.8
2015-09-29T12:46:17.353Z,15.9
2015-09-29T12:47:17.293Z,16
2015-09-29T12:48:17.248Z,16.1
2015-09-29T12:49:17.204Z,16.1
2015-09-29T12:50:17.145Z,16.2
2015-09-29T12:51:17.100Z,16.3
2015-09-29T12:52:17.057Z,16.3
2015-09-29T12:53:16.997Z,16.3
2015-09-29T12:54:16.953Z,16.4
2015-09-29T12:55:16.893Z,16.3
2015-09-29T12:56:16.848Z,16.4
2015-09-29T12:57:16.804Z,16.2
2015-09-29T12:58:16.745Z,16.1
2015-09-29T12:59:16.701Z,16.1
2015-09-29T13:00:16.656Z,16.2
2015-09-29T13:01:16.597Z,16.2
2015-09-29T13:02:16.553Z,16.2
2015-09-29T13:03:16.508Z,16.2
2015-09-29T13:04:16.448Z,16.2
2015-09-29T13:05:16.405Z,16.2
2015-09-29T13:06:16.345Z,16.2
2015-09-29T13:07:16.300Z,16.3
2015-09-29T13:08:16.256Z,16.3
2015-09-29T13:09:16.194Z,16.4
2015-09-29T13:10:16.150Z,16.5
2015-09-29T13:11:16.106Z,16.5
2015-09-29T13:12:16.061Z,16.6
2015-09-29T13:13:16.002Z,16.7
2015-09-29T13:14:15.958Z,16.5
2015-09-29T13:15:15.898Z,16.4
2015-09-29T13:16:15.853Z,16.3
2015-09-29T13:17:15.794Z,16.3
2015-09-29T13:18:15.750Z,16.3
2015-09-29T13:19:15.706Z,16.2
2015-09-29T13:20:15.646Z,16.1
2015-09-29T13:21:15.602Z,16.1
2015-09-29T13:22:15.558Z,16
2015-09-29T13:23:15.497Z,15.9
2015-09-29T13:24:15.454Z,15.9
2015-09-29T13:25:15.394Z,15.7
2015-09-29T13:26:15.350Z,15.7
2015-09-29T13:27:15.321Z,15.7
2015-09-29T13:28:15.262Z,15.7
2015-09-29T13:29:15.218Z,15.7
2015-09-29T13:30:15.158Z,15.7
2015-09-29T13:31:15.113Z,15.7
2015-09-29T13:32:15.055Z,15.7
2015-09-29T13:33:15.010Z,15.6
2015-09-29T13:34:14.966Z,15.6
2015-09-29T13:35:14.906Z,15.6
2015-09-29T13:36:14.862Z,15.5
2015-09-29T13:37:14.818Z,15.5
2015-09-29T13:38:14.757Z,15.5
2015-09-29T13:39:14.714Z,15.4
2015-09-29T13:40:14.654Z,15.5
2015-09-29T13:41:14.609Z,15.5
2015-09-29T13:42:14.566Z,15.5